sensor_id;sensor_type;location;lat;lon;timestamp;pressure;altitude;pressure_sealevel;temperature;humidity
69667;BME280;66534;52.370;4.832;2023-04-26T00:00:26;101963.81;;;6.23;100.00
69667;BME280;66534;52.370;4.832;2023-04-26T00:01:01;101970.63;;;6.38;100.00
69667;BME280;66534;52.370;4.832;2023-04-26T00:01:35;101964.44;;;6.49;100.00
69667;BME280;66534;52.370;4.832;2023-04-26T00:02:05;101965.34;;;6.45;100.00
69667;BME280;66534;52.370;4.832;2023-04-26T00:02:36;101962.03;;;6.27;100.00
69667;BME280;66534;52.370;4.832;2023-04-26T00:03:06;101972.31;;;6.42;100.00
69667;BME280;66534;52.370;4.832;2023-04-26T00:03:36;101963.56;;;6.52;100.00
69667;BME280;66534;52.370;4.832;2023-04-26T00:04:09;101963.66;;;6.41;100.00
69667;BME280;66534;52.370;4.832;2023-04-26T00:04:39;101966.22;;;6.43;100.00
69667;BME280;66534;52.370;4.832;2023-04-26T00:05:10;101957.53;;;6.42;100.00
69667;BME280;66534;52.370;4.832;2023-04-26T00:05:40;101961.81;;;6.51;100.00
69667;BME280;66534;52.370;4.832;2023-04-26T00:06:11;101971.25;;;6.63;100.00
69667;BME280;66534;52.370;4.832;2023-04-26T00:06:43;101966.00;;;6.64;100.00
69667;BME280;66534;52.370;4.832;2023-04-26T00:07:14;101958.19;;;6.64;100.00
69667;BME280;66534;52.370;4.832;2023-04-26T00:07:45;101959.03;;;6.68;100.00
69667;BME280;66534;52.370;4.832;2023-04-26T00:08:15;101965.19;;;6.59;100.00
69667;BME280;66534;52.370;4.832;2023-04-26T00:08:45;101962.69;;;6.50;100.00
69667;BME280;66534;52.370;4.832;2023-04-26T00:09:16;101969.84;;;6.27;100.00
69667;BME280;66534;52.370;4.832;2023-04-26T00:09:48;101966.44;;;6.18;100.00
69667;BME280;66534;52.370;4.832;2023-04-26T00:10:19;101970.72;;;6.26;100.00
69667;BME280;66534;52.370;4.832;2023-04-26T00:10:49;101967.03;;;6.51;100.00
69667;BME280;66534;52.370;4.832;2023-04-26T00:11:20;101966.09;;;6.58;100.00
69667;BME280;66534;52.370;4.832;2023-04-26T00:11:50;101964.41;;;6.53;100.00
69667;BME280;66534;52.370;4.832;2023-04-26T00:12:21;101974.19;;;6.26;100.00
69667;BME280;66534;52.370;4.832;2023-04-26T00:12:51;101975.88;;;6.33;100.00
69667;BME280;66534;52.370;4.832;2023-04-26T00:13:22;101972.31;;;6.43;100.00
69667;BME280;66534;52.370;4.832;2023-04-26T00:13:52;101969.63;;;6.53;100.00
69667;BME280;66534;52.370;4.832;2023-04-26T00:14:24;101973.06;;;6.58;100.00
69667;BME280;66534;52.370;4.832;2023-04-26T00:14:55;101971.22;;;6.64;100.00
69667;BME280;66534;52.370;4.832;2023-04-26T00:15:25;101975.78;;;6.42;100.00
69667;BME280;66534;52.370;4.832;2023-04-26T00:15:55;101973.25;;;6.35;100.00
69667;BME280;66534;52.370;4.832;2023-04-26T00:16:26;101976.81;;;6.26;100.00
69667;BME280;66534;52.370;4.832;2023-04-26T00:16:56;101971.56;;;6.32;100.00
69667;BME280;66534;52.370;4.832;2023-04-26T00:17:26;101977.66;;;6.28;100.00
69667;BME280;66534;52.370;4.832;2023-04-26T00:17:57;101975.91;;;6.30;100.00
69667;BME280;66534;52.370;4.832;2023-04-26T00:18:27;101953.44;;;6.17;100.00
69667;BME280;66534;52.370;4.832;2023-04-26T00:18:57;101966.22;;;6.46;100.00
69667;BME280;66534;52.370;4.832;2023-04-26T00:19:28;101970.47;;;6.55;100.00
69667;BME280;66534;52.370;4.832;2023-04-26T00:19:58;101972.25;;;6.49;100.00
69667;BME280;66534;52.370;4.832;2023-04-26T00:20:28;101967.84;;;6.58;100.00
69667;BME280;66534;52.370;4.832;2023-04-26T00:20:59;101974.69;;;6.66;100.00
69667;BME280;66534;52.370;4.832;2023-04-26T00:21:29;101967.66;;;6.74;100.00
69667;BME280;66534;52.370;4.832;2023-04-26T00:22:00;101971.31;;;6.58;100.00
69667;BME280;66534;52.370;4.832;2023-04-26T00:22:31;101967.75;;;6.67;100.00
69667;BME280;66534;52.370;4.832;2023-04-26T00:23:02;101970.38;;;6.64;100.00
69667;BME280;66534;52.370;4.832;2023-04-26T00:23:33;101966.03;;;6.66;100.00
69667;BME280;66534;52.370;4.832;2023-04-26T00:24:05;101970.28;;;6.74;100.00
69667;BME280;66534;52.370;4.832;2023-04-26T00:24:36;101971.84;;;6.88;100.00
69667;BME280;66534;52.370;4.832;2023-04-26T00:25:07;101968.31;;;6.93;100.00
69667;BME280;66534;52.370;4.832;2023-04-26T00:25:38;101966.53;;;6.98;100.00
69667;BME280;66534;52.370;4.832;2023-04-26T00:26:08;101966.47;;;7.03;100.00
69667;BME280;66534;52.370;4.832;2023-04-26T00:26:39;101962.91;;;7.09;100.00
69667;BME280;66534;52.370;4.832;2023-04-26T00:27:09;101961.31;;;6.97;100.00
69667;BME280;66534;52.370;4.832;2023-04-26T00:27:39;101960.59;;;6.86;100.00
69667;BME280;66534;52.370;4.832;2023-04-26T00:28:10;101951.94;;;6.81;100.00
69667;BME280;66534;52.370;4.832;2023-04-26T00:28:40;101957.16;;;6.82;100.00
69667;BME280;66534;52.370;4.832;2023-04-26T00:29:10;101955.44;;;6.80;100.00
69667;BME280;66534;52.370;4.832;2023-04-26T00:29:41;101959.06;;;6.63;100.00
69667;BME280;66534;52.370;4.832;2023-04-26T00:30:12;101956.72;;;6.40;100.00
69667;BME280;66534;52.370;4.832;2023-04-26T00:30:42;101956.84;;;6.25;100.00
69667;BME280;66534;52.370;4.832;2023-04-26T00:31:16;101964.72;;;6.17;100.00
69667;BME280;66534;52.370;4.832;2023-04-26T00:31:47;101962.13;;;6.19;100.00
69667;BME280;66534;52.370;4.832;2023-04-26T00:32:17;101958.59;;;6.21;100.00
69667;BME280;66534;52.370;4.832;2023-04-26T00:32:48;101963.69;;;6.35;100.00
69667;BME280;66534;52.370;4.832;2023-04-26T00:33:18;101959.28;;;6.45;100.00
69667;BME280;66534;52.370;4.832;2023-04-26T00:33:49;101964.38;;;6.57;100.00
69667;BME280;66534;52.370;4.832;2023-04-26T00:34:20;101955.63;;;6.61;100.00
69667;BME280;66534;52.370;4.832;2023-04-26T00:34:50;101956.50;;;6.62;100.00
69667;BME280;66534;52.370;4.832;2023-04-26T00:35:21;101960.81;;;6.66;100.00
69667;BME280;66534;52.370;4.832;2023-04-26T00:35:51;101957.44;;;6.55;100.00
69667;BME280;66534;52.370;4.832;2023-04-26T00:36:21;101955.97;;;6.24;100.00
69667;BME280;66534;52.370;4.832;2023-04-26T00:36:52;101955.75;;;6.47;100.00
69667;BME280;66534;52.370;4.832;2023-04-26T00:37:22;101957.44;;;6.52;100.00
69667;BME280;66534;52.370;4.832;2023-04-26T00:37:53;101957.53;;;6.42;100.00
69667;BME280;66534;52.370;4.832;2023-04-26T00:38:24;101958.75;;;6.05;100.00
69667;BME280;66534;52.370;4.832;2023-04-26T00:38:54;101957.09;;;5.90;100.00
69667;BME280;66534;52.370;4.832;2023-04-26T00:39:25;101967.38;;;6.10;100.00
69667;BME280;66534;52.370;4.832;2023-04-26T00:39:56;101968.22;;;6.15;100.00
69667;BME280;66534;52.370;4.832;2023-04-26T00:40:26;101963.00;;;6.13;100.00
69667;BME280;66534;52.370;4.832;2023-04-26T00:40:56;101958.72;;;6.11;100.00
69667;BME280;66534;52.370;4.832;2023-04-26T00:41:27;101970.06;;;6.01;100.00
69667;BME280;66534;52.370;4.832;2023-04-26T00:41:58;101962.03;;;6.28;100.00
69667;BME280;66534;52.370;4.832;2023-04-26T00:42:28;101961.06;;;6.35;100.00
69667;BME280;66534;52.370;4.832;2023-04-26T00:42:59;101961.22;;;6.20;100.00
69667;BME280;66534;52.370;4.832;2023-04-26T00:43:29;101965.53;;;6.26;100.00
69667;BME280;66534;52.370;4.832;2023-04-26T00:43:59;101962.13;;;6.17;100.00
69667;BME280;66534;52.370;4.832;2023-04-26T00:44:30;101867.09;;;5.54;100.00
69667;BME280;66534;52.370;4.832;2023-04-26T00:45:00;101963.03;;;6.10;100.00
69667;BME280;66534;52.370;4.832;2023-04-26T00:45:31;101957.03;;;6.01;100.00
69667;BME280;66534;52.370;4.832;2023-04-26T00:46:02;101964.06;;;5.85;100.00
69667;BME280;66534;52.370;4.832;2023-04-26T00:46:32;101962.34;;;5.81;100.00
69667;BME280;66534;52.370;4.832;2023-04-26T00:47:03;101963.25;;;5.77;100.00
69667;BME280;66534;52.370;4.832;2023-04-26T00:47:33;101973.75;;;5.66;100.00
69667;BME280;66534;52.370;4.832;2023-04-26T00:48:05;101964.94;;;5.85;100.00
69667;BME280;66534;52.370;4.832;2023-04-26T00:48:36;101961.34;;;6.05;100.00
69667;BME280;66534;52.370;4.832;2023-04-26T00:49:06;101957.63;;;6.33;100.00
69667;BME280;66534;52.370;4.832;2023-04-26T00:49:37;101959.25;;;6.43;100.00
69667;BME280;66534;52.370;4.832;2023-04-26T00:50:07;101957.34;;;6.62;100.00
69667;BME280;66534;52.370;4.832;2023-04-26T00:50:39;101958.16;;;6.70;100.00
69667;BME280;66534;52.370;4.832;2023-04-26T00:51:09;101952.78;;;6.84;100.00
69667;BME280;66534;52.370;4.832;2023-04-26T00:51:44;101948.38;;;6.91;100.00
69667;BME280;66534;52.370;4.832;2023-04-26T00:52:16;101950.41;;;6.63;100.00
69667;BME280;66534;52.370;4.832;2023-04-26T00:52:47;101953.03;;;6.61;100.00
69667;BME280;66534;52.370;4.832;2023-04-26T00:53:18;101952.03;;;6.73;100.00
69667;BME280;66534;52.370;4.832;2023-04-26T00:53:49;101948.44;;;6.83;100.00
69667;BME280;66534;52.370;4.832;2023-04-26T00:54:20;101949.47;;;6.68;100.00
69667;BME280;66534;52.370;4.832;2023-04-26T00:54:50;101949.47;;;6.70;100.00
69667;BME280;66534;52.370;4.832;2023-04-26T00:55:23;101953.66;;;6.83;100.00
69667;BME280;66534;52.370;4.832;2023-04-26T00:55:56;101953.69;;;6.82;100.00
69667;BME280;66534;52.370;4.832;2023-04-26T00:56:28;101957.28;;;6.70;100.00
69667;BME280;66534;52.370;4.832;2023-04-26T00:56:59;101948.81;;;6.48;100.00
69667;BME280;66534;52.370;4.832;2023-04-26T00:57:30;101945.44;;;6.35;100.00
69667;BME280;66534;52.370;4.832;2023-04-26T00:58:00;101949.16;;;6.08;100.00
69667;BME280;66534;52.370;4.832;2023-04-26T00:58:31;101961.41;;;5.97;100.00
69667;BME280;66534;52.370;4.832;2023-04-26T00:59:02;101957.06;;;5.97;100.00
69667;BME280;66534;52.370;4.832;2023-04-26T00:59:32;101957.81;;;6.15;100.00
69667;BME280;66534;52.370;4.832;2023-04-26T01:00:04;101956.00;;;6.21;100.00
69667;BME280;66534;52.370;4.832;2023-04-26T01:00:35;101953.41;;;6.23;100.00
69667;BME280;66534;52.370;4.832;2023-04-26T01:01:05;101958.53;;;6.32;100.00
69667;BME280;66534;52.370;4.832;2023-04-26T01:01:36;101951.34;;;6.54;100.00
69667;BME280;66534;52.370;4.832;2023-04-26T01:02:07;101950.47;;;6.55;100.00
69667;BME280;66534;52.370;4.832;2023-04-26T01:02:38;101950.59;;;6.43;100.00
69667;BME280;66534;52.370;4.832;2023-04-26T01:03:09;101963.84;;;6.20;100.00
69667;BME280;66534;52.370;4.832;2023-04-26T01:03:40;101958.78;;;5.97;100.00
69667;BME280;66534;52.370;4.832;2023-04-26T01:04:10;101958.69;;;6.09;100.00
69667;BME280;66534;52.370;4.832;2023-04-26T01:04:42;101962.13;;;6.17;100.00
69667;BME280;66534;52.370;4.832;2023-04-26T01:05:14;101962.13;;;6.19;100.00
69667;BME280;66534;52.370;4.832;2023-04-26T01:05:44;101958.53;;;6.32;100.00
69667;BME280;66534;52.370;4.832;2023-04-26T01:06:15;101952.31;;;6.45;100.00
69667;BME280;66534;52.370;4.832;2023-04-26T01:06:46;101948.66;;;6.65;100.00
69667;BME280;66534;52.370;4.832;2023-04-26T01:07:17;101951.09;;;6.79;100.00
69667;BME280;66534;52.370;4.832;2023-04-26T01:07:47;101953.72;;;6.79;100.00
69667;BME280;66534;52.370;4.832;2023-04-26T01:08:18;101951.94;;;6.81;100.00
69667;BME280;66534;52.370;4.832;2023-04-26T01:08:50;101949.41;;;6.74;100.00
69667;BME280;66534;52.370;4.832;2023-04-26T01:09:22;101952.03;;;6.71;100.00
69667;BME280;66534;52.370;4.832;2023-04-26T01:09:52;101946.84;;;6.70;100.00
69667;BME280;66534;52.370;4.832;2023-04-26T01:10:25;101951.88;;;6.85;100.00
69667;BME280;66534;52.370;4.832;2023-04-26T01:10:57;101947.84;;;6.58;100.00
69667;BME280;66534;52.370;4.832;2023-04-26T01:11:28;101954.72;;;6.64;100.00
69667;BME280;66534;52.370;4.832;2023-04-26T01:11:59;101949.47;;;6.68;100.00
69667;BME280;66534;52.370;4.832;2023-04-26T01:12:30;101955.47;;;6.75;100.00
69667;BME280;66534;52.370;4.832;2023-04-26T01:13:01;101944.91;;;6.87;100.00
69667;BME280;66534;52.370;4.832;2023-04-26T01:13:32;101945.66;;;6.97;100.00
69667;BME280;66534;52.370;4.832;2023-04-26T01:14:04;101946.66;;;6.85;100.00
69667;BME280;66534;52.370;4.832;2023-04-26T01:14:35;101951.09;;;6.79;100.00
69667;BME280;66534;52.370;4.832;2023-04-26T01:15:08;101950.09;;;6.89;100.00
69667;BME280;66534;52.370;4.832;2023-04-26T01:15:42;101945.66;;;6.98;100.00
69667;BME280;66534;52.370;4.832;2023-04-26T01:16:14;101948.19;;;7.05;100.00
69667;BME280;66534;52.370;4.832;2023-04-26T01:16:45;101947.50;;;6.90;100.00
69667;BME280;66534;52.370;4.832;2023-04-26T01:17:16;101947.38;;;6.99;100.00
69667;BME280;66534;52.370;4.832;2023-04-26T01:17:47;101952.72;;;6.90;100.00
69667;BME280;66534;52.370;4.832;2023-04-26T01:18:17;101946.84;;;6.70;100.00
69667;BME280;66534;52.370;4.832;2023-04-26T01:18:50;101953.13;;;6.52;100.00
69667;BME280;66534;52.370;4.832;2023-04-26T01:19:21;101953.75;;;6.74;100.00
69667;BME280;66534;52.370;4.832;2023-04-26T01:19:52;101952.00;;;6.76;100.00
69667;BME280;66534;52.370;4.832;2023-04-26T01:20:22;101948.56;;;6.74;100.00
69667;BME280;66534;52.370;4.832;2023-04-26T01:20:53;101952.16;;;6.61;100.00
69667;BME280;66534;52.370;4.832;2023-04-26T01:21:25;101955.53;;;6.70;100.00
69667;BME280;66534;52.370;4.832;2023-04-26T01:21:56;101952.03;;;6.74;100.00
69667;BME280;66534;52.370;4.832;2023-04-26T01:22:26;101951.22;;;6.69;100.00
69667;BME280;66534;52.370;4.832;2023-04-26T01:22:57;101958.22;;;6.63;100.00
69667;BME280;66534;52.370;4.832;2023-04-26T01:23:27;101954.03;;;6.48;100.00
69667;BME280;66534;52.370;4.832;2023-04-26T01:23:58;101954.00;;;6.53;100.00
69667;BME280;66534;52.370;4.832;2023-04-26T01:24:28;101954.03;;;6.48;100.00
69667;BME280;66534;52.370;4.832;2023-04-26T01:25:00;101955.81;;;6.41;100.00
69667;BME280;66534;52.370;4.832;2023-04-26T01:25:33;101957.50;;;6.47;100.00
69667;BME280;66534;52.370;4.832;2023-04-26T01:26:04;101953.09;;;6.57;100.00
69667;BME280;66534;52.370;4.832;2023-04-26T01:26:34;101955.50;;;6.72;100.00
69667;BME280;66534;52.370;4.832;2023-04-26T01:27:05;101959.97;;;6.62;100.00
69667;BME280;66534;52.370;4.832;2023-04-26T01:27:36;101958.34;;;6.51;100.00
69667;BME280;66534;52.370;4.832;2023-04-26T01:28:07;101957.38;;;6.59;100.00
69667;BME280;66534;52.370;4.832;2023-04-26T01:28:38;101956.50;;;6.60;100.00
69667;BME280;66534;52.370;4.832;2023-04-26T01:29:20;101960.72;;;6.73;100.00
69667;BME280;66534;52.370;4.832;2023-04-26T01:29:53;101954.88;;;6.50;100.00
69667;BME280;66534;52.370;4.832;2023-04-26T01:30:23;101962.78;;;6.39;100.00
69667;BME280;66534;52.370;4.832;2023-04-26T01:30:54;101955.09;;;6.26;100.00
69667;BME280;66534;52.370;4.832;2023-04-26T01:31:24;101963.00;;;6.13;100.00
69667;BME280;66534;52.370;4.832;2023-04-26T01:31:55;101962.19;;;6.11;100.00
69667;BME280;66534;52.370;4.832;2023-04-26T01:32:25;101956.09;;;6.09;100.00
69667;BME280;66534;52.370;4.832;2023-04-26T01:32:55;101961.25;;;6.17;100.00
69667;BME280;66534;52.370;4.832;2023-04-26T01:33:26;101967.16;;;6.37;100.00
69667;BME280;66534;52.370;4.832;2023-04-26T01:33:56;101954.91;;;6.45;100.00
69667;BME280;66534;52.370;4.832;2023-04-26T01:34:27;101960.91;;;6.54;100.00
69667;BME280;66534;52.370;4.832;2023-04-26T01:34:58;101959.09;;;6.65;100.00
69667;BME280;66534;52.370;4.832;2023-04-26T01:35:29;101963.41;;;6.66;100.00
69667;BME280;66534;52.370;4.832;2023-04-26T01:36:00;101964.19;;;6.72;100.00
69667;BME280;66534;52.370;4.832;2023-04-26T01:36:30;101955.69;;;6.55;100.00
69667;BME280;66534;52.370;4.832;2023-04-26T01:37:01;101963.53;;;6.54;100.00
69667;BME280;66534;52.370;4.832;2023-04-26T01:37:31;101953.13;;;6.52;100.00
69667;BME280;66534;52.370;4.832;2023-04-26T01:38:02;101957.56;;;6.44;100.00
69667;BME280;66534;52.370;4.832;2023-04-26T01:38:33;101954.91;;;6.48;100.00
69667;BME280;66534;52.370;4.832;2023-04-26T01:39:03;101961.13;;;6.31;100.00
69667;BME280;66534;52.370;4.832;2023-04-26T01:39:34;101960.47;;;6.07;100.00
69667;BME280;66534;52.370;4.832;2023-04-26T01:40:05;101965.63;;;6.10;100.00
69667;BME280;66534;52.370;4.832;2023-04-26T01:40:36;101962.97;;;6.21;100.00
69667;BME280;66534;52.370;4.832;2023-04-26T01:41:07;101962.03;;;6.28;100.00
69667;BME280;66534;52.370;4.832;2023-04-26T01:41:37;101962.78;;;6.41;100.00
69667;BME280;66534;52.370;4.832;2023-04-26T01:42:08;101958.44;;;6.41;100.00
69667;BME280;66534;52.370;4.832;2023-04-26T01:42:38;101965.38;;;6.39;100.00
69667;BME280;66534;52.370;4.832;2023-04-26T01:43:08;101958.34;;;6.52;100.00
69667;BME280;66534;52.370;4.832;2023-04-26T01:43:40;101954.84;;;6.53;100.00
69667;BME280;66534;52.370;4.832;2023-04-26T01:44:10;101955.72;;;6.51;100.00
69667;BME280;66534;52.370;4.832;2023-04-26T01:44:40;101955.72;;;6.51;100.00
69667;BME280;66534;52.370;4.832;2023-04-26T01:45:11;101957.50;;;6.48;100.00
69667;BME280;66534;52.370;4.832;2023-04-26T01:45:41;101958.38;;;6.49;100.00
69667;BME280;66534;52.370;4.832;2023-04-26T01:46:17;101962.78;;;6.39;100.00
69667;BME280;66534;52.370;4.832;2023-04-26T01:46:48;101960.41;;;6.13;100.00
69667;BME280;66534;52.370;4.832;2023-04-26T01:47:18;101956.03;;;6.17;100.00
69667;BME280;66534;52.370;4.832;2023-04-26T01:47:49;101952.50;;;6.24;100.00
69667;BME280;66534;52.370;4.832;2023-04-26T01:48:19;101954.09;;;6.39;100.00
69667;BME280;66534;52.370;4.832;2023-04-26T01:48:49;101951.44;;;6.46;100.00
69667;BME280;66534;52.370;4.832;2023-04-26T01:49:20;101951.38;;;6.51;100.00
69667;BME280;66534;52.370;4.832;2023-04-26T01:49:51;101953.03;;;6.61;100.00
69667;BME280;66534;52.370;4.832;2023-04-26T01:50:21;101946.88;;;6.67;100.00
69667;BME280;66534;52.370;4.832;2023-04-26T01:50:52;101946.97;;;6.58;100.00
69667;BME280;66534;52.370;4.832;2023-04-26T01:51:22;101945.25;;;6.55;100.00
69667;BME280;66534;52.370;4.832;2023-04-26T01:51:52;101949.59;;;6.58;100.00
69667;BME280;66534;52.370;4.832;2023-04-26T01:52:23;101946.91;;;6.65;100.00
69667;BME280;66534;52.370;4.832;2023-04-26T01:52:54;101953.94;;;6.57;100.00
69667;BME280;66534;52.370;4.832;2023-04-26T01:53:24;101953.06;;;6.58;100.00
69667;BME280;66534;52.370;4.832;2023-04-26T01:53:54;101952.22;;;6.55;100.00
69667;BME280;66534;52.370;4.832;2023-04-26T01:54:25;101946.97;;;6.58;100.00
69667;BME280;66534;52.370;4.832;2023-04-26T01:54:55;101951.25;;;6.63;100.00
69667;BME280;66534;52.370;4.832;2023-04-26T01:55:26;101947.75;;;6.69;100.00
69667;BME280;66534;52.370;4.832;2023-04-26T01:55:59;101946.91;;;6.64;100.00
69667;BME280;66534;52.370;4.832;2023-04-26T01:56:30;101950.41;;;6.60;100.00
69667;BME280;66534;52.370;4.832;2023-04-26T01:57:01;101949.63;;;6.52;100.00
69667;BME280;66534;52.370;4.832;2023-04-26T01:57:31;101949.75;;;6.41;100.00
69667;BME280;66534;52.370;4.832;2023-04-26T01:58:20;101949.81;;;6.36;100.00
69667;BME280;66534;52.370;4.832;2023-04-26T01:58:51;101944.59;;;6.35;100.00
69667;BME280;66534;52.370;4.832;2023-04-26T01:59:21;101942.84;;;6.35;100.00
69667;BME280;66534;52.370;4.832;2023-04-26T01:59:52;101947.31;;;6.21;100.00
69667;BME280;66534;52.370;4.832;2023-04-26T02:00:25;101954.28;;;6.17;100.00
69667;BME280;66534;52.370;4.832;2023-04-26T02:01:03;101946.66;;;5.99;100.00
69667;BME280;66534;52.370;4.832;2023-04-26T02:01:34;101955.19;;;6.13;100.00
69667;BME280;66534;52.370;4.832;2023-04-26T02:02:05;101949.94;;;6.18;100.00
69667;BME280;66534;52.370;4.832;2023-04-26T02:02:35;101947.28;;;6.27;100.00
69667;BME280;66534;52.370;4.832;2023-04-26T02:03:06;101951.75;;;6.11;100.00
69667;BME280;66534;52.370;4.832;2023-04-26T02:03:36;101953.44;;;6.14;100.00
69667;BME280;66534;52.370;4.832;2023-04-26T02:04:06;101950.94;;;6.05;100.00
69667;BME280;66534;52.370;4.832;2023-04-26T02:04:37;101953.50;;;6.09;100.00
69667;BME280;66534;52.370;4.832;2023-04-26T02:05:08;101955.94;;;6.29;100.00
69667;BME280;66534;52.370;4.832;2023-04-26T02:05:39;101944.56;;;6.38;100.00
69667;BME280;66534;52.370;4.832;2023-04-26T02:06:10;101955.09;;;6.27;100.00
69667;BME280;66534;52.370;4.832;2023-04-26T02:06:40;101952.50;;;6.27;100.00
69667;BME280;66534;52.370;4.832;2023-04-26T02:07:11;101952.44;;;6.30;100.00
69667;BME280;66534;52.370;4.832;2023-04-26T02:07:41;101954.09;;;6.40;100.00
69667;BME280;66534;52.370;4.832;2023-04-26T02:08:12;101951.47;;;6.42;100.00
69667;BME280;66534;52.370;4.832;2023-04-26T02:08:42;101954.84;;;6.52;100.00
69667;BME280;66534;52.370;4.832;2023-04-26T02:09:12;101943.63;;;6.43;100.00
69667;BME280;66534;52.370;4.832;2023-04-26T02:09:43;101947.13;;;6.42;100.00
69667;BME280;66534;52.370;4.832;2023-04-26T02:10:15;101944.47;;;6.47;100.00
69667;BME280;66534;52.370;4.832;2023-04-26T02:10:46;101949.06;;;6.20;100.00
69667;BME280;66534;52.370;4.832;2023-04-26T02:11:16;101948.13;;;6.29;100.00
69667;BME280;66534;52.370;4.832;2023-04-26T02:11:46;101957.69;;;6.29;100.00
69667;BME280;66534;52.370;4.832;2023-04-26T02:12:17;101955.22;;;6.12;100.00
69667;BME280;66534;52.370;4.832;2023-04-26T02:12:47;101953.59;;;5.98;100.00
69667;BME280;66534;52.370;4.832;2023-04-26T02:13:18;101958.81;;;5.98;100.00
69667;BME280;66534;52.370;4.832;2023-04-26T02:13:49;101953.69;;;5.80;100.00
69667;BME280;66534;52.370;4.832;2023-04-26T02:14:19;101957.13;;;5.85;100.00
69667;BME280;66534;52.370;4.832;2023-04-26T02:14:50;101954.44;;;5.97;100.00
69667;BME280;66534;52.370;4.832;2023-04-26T02:15:20;101951.78;;;6.05;100.00
69667;BME280;66534;52.370;4.832;2023-04-26T02:15:50;101945.69;;;6.08;100.00
69667;BME280;66534;52.370;4.832;2023-04-26T02:16:21;101955.28;;;6.04;100.00
69667;BME280;66534;52.370;4.832;2023-04-26T02:16:51;101955.28;;;6.04;100.00
69667;BME280;66534;52.370;4.832;2023-04-26T02:17:24;101948.47;;;5.83;100.00
69667;BME280;66534;52.370;4.832;2023-04-26T02:17:55;101948.41;;;5.89;100.00
69667;BME280;66534;52.370;4.832;2023-04-26T02:18:25;101956.22;;;5.91;100.00
69667;BME280;66534;52.370;4.832;2023-04-26T02:18:56;101956.19;;;5.98;100.00
69667;BME280;66534;52.370;4.832;2023-04-26T02:19:28;101953.53;;;6.06;100.00
69667;BME280;66534;52.370;4.832;2023-04-26T02:19:58;101957.88;;;6.07;100.00
69667;BME280;66534;52.370;4.832;2023-04-26T02:20:29;101956.13;;;6.08;100.00
69667;BME280;66534;52.370;4.832;2023-04-26T02:20:59;101956.16;;;6.02;100.00
69667;BME280;66534;52.370;4.832;2023-04-26T02:21:30;101954.41;;;6.05;100.00
69667;BME280;66534;52.370;4.832;2023-04-26T02:22:00;101955.19;;;6.16;100.00
69667;BME280;66534;52.370;4.832;2023-04-26T02:22:30;101943.81;;;6.25;100.00
69667;BME280;66534;52.370;4.832;2023-04-26T02:23:01;101948.09;;;6.31;100.00
69667;BME280;66534;52.370;4.832;2023-04-26T02:23:31;101948.94;;;6.36;100.00
69667;BME280;66534;52.370;4.832;2023-04-26T02:24:02;101941.94;;;6.39;100.00
69667;BME280;66534;52.370;4.832;2023-04-26T02:24:32;101951.53;;;6.34;100.00
69667;BME280;66534;52.370;4.832;2023-04-26T02:25:02;101948.94;;;6.34;100.00
69667;BME280;66534;52.370;4.832;2023-04-26T02:25:34;101947.41;;;6.12;100.00
69667;BME280;66534;52.370;4.832;2023-04-26T02:26:05;101950.09;;;6.01;100.00
69667;BME280;66534;52.370;4.832;2023-04-26T02:26:35;101956.09;;;6.11;100.00
69667;BME280;66534;52.370;4.832;2023-04-26T02:27:05;101954.34;;;6.10;100.00
69667;BME280;66534;52.370;4.832;2023-04-26T02:27:36;101953.44;;;6.17;100.00
69667;BME280;66534;52.370;4.832;2023-04-26T02:28:07;101953.41;;;6.20;100.00
69667;BME280;66534;52.370;4.832;2023-04-26T02:28:37;101951.81;;;6.04;100.00
69667;BME280;66534;52.370;4.832;2023-04-26T02:29:07;101956.06;;;6.14;100.00
69667;BME280;66534;52.370;4.832;2023-04-26T02:29:38;101944.75;;;6.16;100.00
69667;BME280;66534;52.370;4.832;2023-04-26T02:30:08;101952.63;;;6.12;100.00
69667;BME280;66534;52.370;4.832;2023-04-26T02:30:39;101950.00;;;6.12;100.00
69667;BME280;66534;52.370;4.832;2023-04-26T02:31:09;101954.41;;;6.04;100.00
69667;BME280;66534;52.370;4.832;2023-04-26T02:31:40;101953.59;;;5.98;100.00
69667;BME280;66534;52.370;4.832;2023-04-26T02:32:11;101950.03;;;6.09;100.00
69667;BME280;66534;52.370;4.832;2023-04-26T02:32:42;101948.34;;;6.02;100.00
69667;BME280;66534;52.370;4.832;2023-04-26T02:33:12;101955.25;;;6.06;100.00
69667;BME280;66534;52.370;4.832;2023-04-26T02:33:43;101950.16;;;5.87;100.00
69667;BME280;66534;52.370;4.832;2023-04-26T02:34:13;101950.16;;;5.95;100.00
69667;BME280;66534;52.370;4.832;2023-04-26T02:34:43;101950.13;;;5.98;100.00
69667;BME280;66534;52.370;4.832;2023-04-26T02:35:14;101948.31;;;6.05;100.00
69667;BME280;66534;52.370;4.832;2023-04-26T02:35:44;101951.03;;;5.86;100.00
69667;BME280;66534;52.370;4.832;2023-04-26T02:36:15;101953.72;;;5.72;100.00
69667;BME280;66534;52.370;4.832;2023-04-26T02:36:45;101956.31;;;5.79;100.00
69667;BME280;66534;52.370;4.832;2023-04-26T02:37:15;101958.00;;;5.84;100.00
69667;BME280;66534;52.370;4.832;2023-04-26T02:37:46;101951.88;;;5.91;100.00
69667;BME280;66534;52.370;4.832;2023-04-26T02:38:21;101953.69;;;5.79;100.00
69667;BME280;66534;52.370;4.832;2023-04-26T02:38:51;101954.56;;;5.82;100.00
69667;BME280;66534;52.370;4.832;2023-04-26T02:39:22;101956.19;;;6.00;100.00
69667;BME280;66534;52.370;4.832;2023-04-26T02:39:52;101956.97;;;6.08;100.00
69667;BME280;66534;52.370;4.832;2023-04-26T02:40:23;101946.47;;;6.20;100.00
69667;BME280;66534;52.370;4.832;2023-04-26T02:40:57;101953.31;;;6.32;100.00
69667;BME280;66534;52.370;4.832;2023-04-26T02:41:31;101953.31;;;6.32;100.00
69667;BME280;66534;52.370;4.832;2023-04-26T02:42:02;101948.94;;;6.36;100.00